createdAt,value
2022-12-01T00:01:05.005Z,21.50
2022-12-01T00:03:03.016Z,21.50
2022-12-01T00:05:01.093Z,21.44
2022-12-01T00:06:58.972Z,21.31
2022-12-01T00:09:19.553Z,21.25
2022-12-01T00:11:18.121Z,21.25
2022-12-01T00:13:16.011Z,21.19
2022-12-01T00:15:13.928Z,21.19
2022-12-01T00:17:12.900Z,21.13
2022-12-01T00:19:10.832Z,21.13
2022-12-01T00:21:08.763Z,21.06
2022-12-01T00:23:06.645Z,21.00
2022-12-01T00:25:04.751Z,21.00
2022-12-01T00:27:02.779Z,20.94
2022-12-01T00:29:00.742Z,20.94
2022-12-01T00:31:00.094Z,20.88
2022-12-01T00:32:58.085Z,20.88
2022-12-01T00:34:56.016Z,20.81
2022-12-01T00:36:53.939Z,20.81
2022-12-01T00:38:51.843Z,20.81
2022-12-01T00:40:49.724Z,20.75
2022-12-01T00:42:47.672Z,20.75
2022-12-01T00:44:45.686Z,20.69
2022-12-01T00:46:43.596Z,20.69
2022-12-01T00:48:41.458Z,20.63
2022-12-01T00:50:39.381Z,20.63
2022-12-01T00:52:37.330Z,20.63
2022-12-01T00:54:35.266Z,20.63
2022-12-01T00:56:33.162Z,20.56
2022-12-01T00:58:31.051Z,20.56
2022-12-01T01:00:29.041Z,20.56
2022-12-01T01:02:26.991Z,20.50
2022-12-01T01:04:24.916Z,20.50
2022-12-01T01:06:22.828Z,20.44
2022-12-01T01:08:20.749Z,20.44
2022-12-01T01:10:18.632Z,20.44
2022-12-01T01:12:16.579Z,20.44
2022-12-01T01:14:14.914Z,20.38
2022-12-01T01:16:12.989Z,20.38
2022-12-01T01:18:10.932Z,20.31
2022-12-01T01:20:09.906Z,20.31
2022-12-01T01:22:08.059Z,20.31
2022-12-01T01:24:06.043Z,20.25
2022-12-01T01:26:03.936Z,20.44
2022-12-01T01:28:01.860Z,21.56
2022-12-01T01:30:00.826Z,21.69
2022-12-01T01:31:58.718Z,21.94
2022-12-01T01:33:56.673Z,22.13
2022-12-01T01:35:54.610Z,22.31
2022-12-01T01:37:52.527Z,22.50
2022-12-01T01:39:50.668Z,22.56
2022-12-01T01:41:48.802Z,22.75
2022-12-01T01:43:46.671Z,22.75
2022-12-01T01:45:44.709Z,22.88
2022-12-01T01:47:42.707Z,22.94
2022-12-01T01:49:40.605Z,22.94
2022-12-01T01:51:38.590Z,22.94
2022-12-01T01:53:36.538Z,22.19
2022-12-01T01:55:34.439Z,22.00
2022-12-01T01:57:33.100Z,21.88
2022-12-01T01:59:31.065Z,21.81
2022-12-01T02:01:29.017Z,21.69
2022-12-01T02:03:27.010Z,21.63
2022-12-01T02:05:24.908Z,21.56
2022-12-01T02:07:22.876Z,21.50
2022-12-01T02:09:20.855Z,21.44
2022-12-01T02:11:18.740Z,21.38
2022-12-01T02:13:17.007Z,21.25
2022-12-01T02:15:14.868Z,21.25
2022-12-01T02:17:12.751Z,21.19
2022-12-01T02:19:10.661Z,21.13
2022-12-01T02:21:08.573Z,21.06
2022-12-01T02:23:06.502Z,21.00
2022-12-01T02:25:04.409Z,20.94
2022-12-01T02:27:02.303Z,20.94
2022-12-01T02:29:00.211Z,20.88
2022-12-01T02:30:58.210Z,20.81
2022-12-01T02:32:56.112Z,20.75
2022-12-01T02:34:54.022Z,20.75
2022-12-01T02:36:51.943Z,20.69
2022-12-01T02:38:49.847Z,20.69
2022-12-01T02:40:47.870Z,20.63
2022-12-01T02:42:53.364Z,20.56
2022-12-01T02:44:51.264Z,20.50
2022-12-01T02:46:49.182Z,20.50
2022-12-01T02:48:47.074Z,20.44
2022-12-01T02:50:44.977Z,20.44
2022-12-01T02:52:42.943Z,20.56
2022-12-01T02:54:40.818Z,21.63
2022-12-01T02:56:38.948Z,21.75
2022-12-01T02:58:36.847Z,22.00
2022-12-01T03:00:34.732Z,22.19
2022-12-01T03:02:32.656Z,22.31
2022-12-01T03:04:30.723Z,22.44
2022-12-01T03:06:28.680Z,22.50
2022-12-01T03:08:26.697Z,22.63
2022-12-01T03:10:25.281Z,22.69
2022-12-01T03:12:23.721Z,22.75
2022-12-01T03:14:21.782Z,22.75
2022-12-01T03:16:20.154Z,22.81
2022-12-01T03:18:18.122Z,22.81
2022-12-01T03:20:16.296Z,22.88
2022-12-01T03:22:15.298Z,22.13
2022-12-01T03:24:13.228Z,21.94
2022-12-01T03:26:11.230Z,21.81
2022-12-01T03:28:24.905Z,21.75
2022-12-01T03:30:22.822Z,21.63
2022-12-01T03:32:20.767Z,21.56
2022-12-01T03:34:19.039Z,21.50
2022-12-01T03:36:16.959Z,21.44
2022-12-01T03:38:15.081Z,21.38
2022-12-01T03:40:13.018Z,21.31
2022-12-01T03:42:10.909Z,21.25
2022-12-01T03:44:08.850Z,21.19
2022-12-01T03:46:06.786Z,21.13
2022-12-01T03:48:05.793Z,21.06
2022-12-01T03:50:03.761Z,21.00
2022-12-01T03:52:01.698Z,20.94
2022-12-01T03:53:59.598Z,20.94
2022-12-01T03:55:57.728Z,20.88
2022-12-01T03:57:55.640Z,20.81
2022-12-01T03:59:53.537Z,20.75
2022-12-01T04:01:51.549Z,20.69
2022-12-01T04:03:49.476Z,20.69
2022-12-01T04:05:47.527Z,20.63
2022-12-01T04:07:45.444Z,20.63
2022-12-01T04:09:43.409Z,20.56
2022-12-01T04:11:59.153Z,20.56
2022-12-01T04:13:57.119Z,20.50
2022-12-01T04:15:55.068Z,20.44
2022-12-01T04:17:52.990Z,20.44
2022-12-01T04:19:51.187Z,21.69
2022-12-01T04:21:49.347Z,21.75
2022-12-01T04:24:02.335Z,22.06
2022-12-01T04:26:00.302Z,22.25
2022-12-01T04:27:58.188Z,22.44
2022-12-01T04:29:56.048Z,22.50
2022-12-01T04:31:54.050Z,22.63
2022-12-01T04:33:52.023Z,23.19
2022-12-01T04:35:49.904Z,23.38
2022-12-01T04:37:47.789Z,23.50
2022-12-01T04:39:45.786Z,23.50
2022-12-01T04:41:43.709Z,23.13
2022-12-01T04:43:41.572Z,22.25
2022-12-01T04:45:39.479Z,22.13
2022-12-01T04:47:37.378Z,22.00
2022-12-01T04:49:37.232Z,21.88
2022-12-01T04:51:35.205Z,21.81
2022-12-01T04:53:33.092Z,21.69
2022-12-01T04:55:31.169Z,21.63
2022-12-01T04:57:29.098Z,21.56
2022-12-01T04:59:27.024Z,21.50
2022-12-01T05:01:24.998Z,21.44
2022-12-01T05:03:23.001Z,21.38
2022-12-01T05:05:21.247Z,21.31
2022-12-01T05:07:19.305Z,21.25
2022-12-01T05:09:17.973Z,21.19
2022-12-01T05:11:16.026Z,21.13
2022-12-01T05:13:13.934Z,21.13
2022-12-01T05:15:11.889Z,21.06
2022-12-01T05:17:09.815Z,21.00
2022-12-01T05:19:25.467Z,20.94
2022-12-01T05:21:23.381Z,20.94
2022-12-01T05:23:21.413Z,20.88
2022-12-01T05:25:19.288Z,20.81
2022-12-01T05:27:17.259Z,20.81
2022-12-01T05:29:16.220Z,20.75
2022-12-01T05:31:14.156Z,20.75
2022-12-01T05:33:12.131Z,20.69
2022-12-01T05:35:10.097Z,20.63
2022-12-01T05:37:07.976Z,20.63
2022-12-01T05:39:05.846Z,20.56
2022-12-01T05:41:03.759Z,20.50
2022-12-01T05:43:02.680Z,20.50
2022-12-01T05:45:00.621Z,20.44
2022-12-01T05:46:58.533Z,21.75
2022-12-01T05:48:56.497Z,21.81
2022-12-01T05:50:54.414Z,22.00
2022-12-01T05:52:52.318Z,22.25
2022-12-01T05:54:50.262Z,22.38
2022-12-01T05:56:48.168Z,22.56
2022-12-01T05:58:46.150Z,22.63
2022-12-01T06:00:46.192Z,22.69
2022-12-01T06:02:44.286Z,22.63
2022-12-01T06:04:42.270Z,22.69
2022-12-01T06:06:41.248Z,22.69
2022-12-01T06:08:39.152Z,22.56
2022-12-01T06:10:37.112Z,21.81
2022-12-01T06:12:35.039Z,21.75
2022-12-01T06:14:33.111Z,21.63
2022-12-01T06:16:33.796Z,21.56
2022-12-01T06:18:31.731Z,21.50
2022-12-01T06:20:29.691Z,21.44
2022-12-01T06:22:27.623Z,21.38
2022-12-01T06:24:25.493Z,21.31
2022-12-01T06:26:23.446Z,21.25
2022-12-01T06:28:21.314Z,21.25
2022-12-01T06:30:19.222Z,21.19
2022-12-01T06:32:17.126Z,21.13
2022-12-01T06:34:15.050Z,21.06
2022-12-01T06:36:12.982Z,21.00
2022-12-01T06:38:10.950Z,20.94
2022-12-01T06:40:08.998Z,20.94
2022-12-01T06:42:06.904Z,20.88
2022-12-01T06:44:05.911Z,20.81
2022-12-01T06:46:03.921Z,20.81
2022-12-01T06:48:01.834Z,20.75
2022-12-01T06:49:59.795Z,20.69
2022-12-01T06:51:58.587Z,20.63
2022-12-01T06:54:03.773Z,20.63
2022-12-01T06:56:03.267Z,20.56
2022-12-01T06:58:01.354Z,20.50
2022-12-01T06:59:59.449Z,21.56
2022-12-01T07:01:58.624Z,22.06
2022-12-01T07:03:56.787Z,22.56
2022-12-01T07:05:54.796Z,23.13
2022-12-01T07:07:59.160Z,23.56
2022-12-01T07:09:57.502Z,24.06
2022-12-01T07:11:55.455Z,24.44
2022-12-01T07:13:53.322Z,24.88
2022-12-01T07:15:51.212Z,25.25
2022-12-01T07:17:49.145Z,25.69
2022-12-01T07:19:47.616Z,26.06
2022-12-01T07:21:45.679Z,26.50
2022-12-01T07:23:44.648Z,26.81
2022-12-01T07:25:42.552Z,27.13
2022-12-01T07:27:41.538Z,27.44
2022-12-01T07:29:39.481Z,27.81
2022-12-01T07:31:37.571Z,28.06
2022-12-01T07:33:35.483Z,28.38
2022-12-01T07:35:33.376Z,28.56
2022-12-01T07:37:31.251Z,28.81
2022-12-01T07:39:29.215Z,29.00
2022-12-01T07:41:27.069Z,29.19
2022-12-01T07:43:24.989Z,29.31
2022-12-01T07:45:23.047Z,29.44
2022-12-01T07:47:21.010Z,29.50
2022-12-01T07:49:18.912Z,29.56
2022-12-01T07:51:17.244Z,29.63
2022-12-01T07:53:15.167Z,29.69
2022-12-01T07:55:13.107Z,29.69
2022-12-01T07:57:14.257Z,29.69
2022-12-01T07:59:12.348Z,29.69
2022-12-01T08:01:10.315Z,29.69
2022-12-01T08:03:08.305Z,29.69
2022-12-01T08:05:06.254Z,29.63
2022-12-01T08:07:04.221Z,29.63
2022-12-01T08:09:02.168Z,29.56
2022-12-01T08:11:00.432Z,29.50
2022-12-01T08:12:58.331Z,29.44
2022-12-01T08:14:56.211Z,29.38
2022-12-01T08:16:54.111Z,29.31
2022-12-01T08:18:52.035Z,29.25
2022-12-01T08:20:49.974Z,29.19
2022-12-01T08:22:48.050Z,29.06
2022-12-01T08:24:45.929Z,29.06
2022-12-01T08:26:43.865Z,28.94
2022-12-01T08:28:41.791Z,28.88
2022-12-01T08:30:39.772Z,28.81
2022-12-01T08:32:37.738Z,28.75
2022-12-01T08:34:35.702Z,28.69
2022-12-01T08:36:33.660Z,28.69
2022-12-01T08:38:31.540Z,28.63
2022-12-01T08:40:29.504Z,28.56
2022-12-01T08:42:27.443Z,28.50
2022-12-01T08:44:25.358Z,28.50
2022-12-01T08:46:23.340Z,28.44
2022-12-01T08:48:21.304Z,28.44
2022-12-01T08:50:19.184Z,28.38
2022-12-01T08:52:17.407Z,28.38
2022-12-01T08:54:15.347Z,28.38
2022-12-01T08:56:13.222Z,28.31
2022-12-01T08:58:11.164Z,28.31
2022-12-01T09:00:09.058Z,28.31
2022-12-01T09:02:07.752Z,28.31
2022-12-01T09:04:09.168Z,28.31
2022-12-01T09:06:07.148Z,28.31
2022-12-01T09:08:22.922Z,28.31
2022-12-01T09:10:22.053Z,28.31
2022-12-01T09:12:19.974Z,28.31
2022-12-01T09:14:17.996Z,28.31
2022-12-01T09:16:15.984Z,28.31
2022-12-01T09:18:13.993Z,28.31
2022-12-01T09:20:11.938Z,28.38
2022-12-01T09:22:10.901Z,28.38
2022-12-01T09:24:08.847Z,28.38
2022-12-01T09:26:10.857Z,28.38
2022-12-01T09:28:12.142Z,28.44
2022-12-01T09:30:10.059Z,28.44
2022-12-01T09:32:07.986Z,28.44
2022-12-01T09:34:06.059Z,28.50
2022-12-01T09:36:04.002Z,28.50
2022-12-01T09:38:01.881Z,28.50
2022-12-01T09:40:00.012Z,28.50
2022-12-01T09:41:57.924Z,28.50
2022-12-01T09:43:55.803Z,28.50
2022-12-01T09:45:53.716Z,28.56
2022-12-01T09:47:51.598Z,28.56
2022-12-01T09:49:49.828Z,28.56
2022-12-01T09:51:47.872Z,29.06
2022-12-01T09:53:45.839Z,29.19
2022-12-01T09:55:44.165Z,29.31
2022-12-01T09:57:42.176Z,29.19
2022-12-01T09:59:41.695Z,28.81
2022-12-01T10:01:39.664Z,28.75
2022-12-01T10:03:40.342Z,28.69
2022-12-01T10:05:46.886Z,28.69
2022-12-01T10:07:56.409Z,28.63
2022-12-01T10:09:54.381Z,28.63
2022-12-01T10:11:52.314Z,28.56
2022-12-01T10:13:50.232Z,28.56
2022-12-01T10:15:48.141Z,28.56
2022-12-01T10:17:46.056Z,28.56
2022-12-01T10:19:43.938Z,27.13
2022-12-01T10:21:42.078Z,25.13
2022-12-01T10:23:40.070Z,23.13
2022-12-01T10:25:37.981Z,26.31
2022-12-01T10:27:36.031Z,26.25
2022-12-01T10:29:33.961Z,27.00
2022-12-01T10:31:32.026Z,27.31
2022-12-01T10:33:30.005Z,27.56
2022-12-01T10:35:29.125Z,27.75
2022-12-01T10:37:27.125Z,28.00
2022-12-01T10:39:25.125Z,28.25
2022-12-01T10:41:23.249Z,28.56
2022-12-01T10:43:21.161Z,28.88
2022-12-01T10:45:19.110Z,29.06
2022-12-01T10:47:17.056Z,29.25
2022-12-01T10:49:14.969Z,29.44
2022-12-01T10:51:12.842Z,29.63
2022-12-01T10:53:10.794Z,29.69
2022-12-01T10:55:08.862Z,29.81
2022-12-01T10:57:06.764Z,29.88
2022-12-01T10:59:04.696Z,29.94
2022-12-01T11:01:02.733Z,29.94
2022-12-01T11:03:00.883Z,30.00
2022-12-01T11:04:58.937Z,30.00
2022-12-01T11:06:56.925Z,30.00
2022-12-01T11:08:54.944Z,29.94
2022-12-01T11:10:53.217Z,29.94
2022-12-01T11:12:51.183Z,29.88
2022-12-01T11:14:49.387Z,29.88
2022-12-01T11:16:47.410Z,29.81
2022-12-01T11:18:45.563Z,29.75
2022-12-01T11:20:43.657Z,29.69
2022-12-01T11:22:41.575Z,29.56
2022-12-01T11:24:39.666Z,29.50
2022-12-01T11:26:37.598Z,29.44
2022-12-01T11:28:35.592Z,29.38
2022-12-01T11:30:33.635Z,29.25
2022-12-01T11:32:31.547Z,29.19
2022-12-01T11:34:29.593Z,29.13
2022-12-01T11:36:27.533Z,29.06
2022-12-01T11:38:29.953Z,29.00
2022-12-01T11:40:28.324Z,28.94
2022-12-01T11:42:26.248Z,28.88
2022-12-01T11:46:50.381Z,28.75
2022-12-01T11:48:53.515Z,28.69
2022-12-01T11:50:51.424Z,28.63
2022-12-01T11:52:49.297Z,28.63
2022-12-01T11:54:47.187Z,28.63
2022-12-01T11:56:45.159Z,28.56
2022-12-01T11:58:43.164Z,28.56
2022-12-01T12:00:41.110Z,28.50
2022-12-01T12:02:39.077Z,28.56
2022-12-01T12:04:37.088Z,28.50
2022-12-01T12:06:42.318Z,28.50
2022-12-01T12:08:40.315Z,28.56
2022-12-01T12:10:38.306Z,28.56
2022-12-01T12:12:36.256Z,28.50
2022-12-01T12:14:34.140Z,28.56
2022-12-01T12:16:33.538Z,28.56
2022-12-01T12:18:31.638Z,28.56
2022-12-01T12:20:29.568Z,28.56
2022-12-01T12:22:27.535Z,28.56
2022-12-01T12:24:25.490Z,28.56
2022-12-01T12:26:23.494Z,28.56
2022-12-01T12:28:22.485Z,28.63
2022-12-01T12:30:20.390Z,28.63
2022-12-01T12:32:18.312Z,28.63
2022-12-01T12:34:16.244Z,28.63
2022-12-01T12:36:14.212Z,28.63
2022-12-01T12:38:12.164Z,28.63
2022-12-01T12:40:10.129Z,28.69
2022-12-01T12:42:19.743Z,28.69
2022-12-01T12:44:17.651Z,28.75
2022-12-01T12:46:18.532Z,29.25
2022-12-01T12:48:16.499Z,29.50
2022-12-01T12:50:14.419Z,29.63
2022-12-01T12:52:12.385Z,29.69
2022-12-01T12:54:10.426Z,29.19
2022-12-01T12:56:08.359Z,28.94
2022-12-01T12:58:11.032Z,28.88
2022-12-01T13:00:10.256Z,28.81
2022-12-01T13:02:08.164Z,28.81
2022-12-01T13:04:06.058Z,28.75
2022-12-01T14:03:34.598Z,27.19
2022-12-01T14:05:32.581Z,27.56
2022-12-01T14:07:30.499Z,27.25
2022-12-01T14:09:28.450Z,26.94
2022-12-01T14:11:26.411Z,26.69
2022-12-01T14:13:24.412Z,27.06
2022-12-01T14:15:22.725Z,27.81
2022-12-01T14:17:21.734Z,27.88
2022-12-01T14:19:19.713Z,27.88
2022-12-01T14:21:18.203Z,27.88
2022-12-01T14:23:16.071Z,27.94
2022-12-01T14:25:13.972Z,28.00
2022-12-01T14:27:13.012Z,28.06
2022-12-01T14:29:11.686Z,28.13
2022-12-01T14:31:09.654Z,28.19
2022-12-01T14:33:07.639Z,28.25
2022-12-01T14:35:05.851Z,28.31
2022-12-01T14:37:03.766Z,28.38
2022-12-01T14:39:01.701Z,28.44
2022-12-01T14:40:59.702Z,28.50
2022-12-01T14:43:15.358Z,28.56
2022-12-01T14:45:13.411Z,28.56
2022-12-01T14:47:12.050Z,28.63
2022-12-01T14:49:09.945Z,28.69
2022-12-01T14:51:07.850Z,28.69
2022-12-01T14:53:05.749Z,28.75
2022-12-01T14:55:03.703Z,28.81
2022-12-01T14:57:06.308Z,28.81
2022-12-01T14:59:07.175Z,28.88
2022-12-01T15:01:05.207Z,28.88
2022-12-01T15:03:04.192Z,28.88
2022-12-01T15:05:02.084Z,28.94
2022-12-01T15:07:00.160Z,28.94
2022-12-01T15:09:25.113Z,28.94
2022-12-01T15:11:15.960Z,28.94
2022-12-01T15:13:13.891Z,28.94
2022-12-01T15:15:11.819Z,28.94
2022-12-01T15:17:09.906Z,28.94
2022-12-01T15:19:07.808Z,28.94
2022-12-01T15:21:05.809Z,28.94
2022-12-01T15:23:03.714Z,28.94
2022-12-01T15:25:01.656Z,28.94
2022-12-01T15:27:03.648Z,28.94
2022-12-01T15:29:02.210Z,28.94
2022-12-01T15:31:00.106Z,28.94
2022-12-01T15:32:58.093Z,28.94
2022-12-01T15:34:55.990Z,28.88
2022-12-01T15:36:53.906Z,28.88
2022-12-01T15:38:51.915Z,28.88
2022-12-01T15:43:07.761Z,27.31
2022-12-01T15:45:08.525Z,25.19
2022-12-01T15:47:06.572Z,24.06
2022-12-01T15:49:04.618Z,26.75
2022-12-01T15:51:02.519Z,27.38
2022-12-01T15:53:00.467Z,27.88
2022-12-01T15:54:58.429Z,28.06
2022-12-01T15:56:56.384Z,28.25
2022-12-01T15:58:54.352Z,28.44
2022-12-01T16:00:52.337Z,28.63
2022-12-01T16:02:52.033Z,28.63
2022-12-01T16:04:50.552Z,28.56
2022-12-01T16:06:48.778Z,28.50
2022-12-01T16:08:46.699Z,28.38
2022-12-01T16:10:44.720Z,28.19
2022-12-01T16:12:42.608Z,28.00
2022-12-01T16:14:40.485Z,26.75
2022-12-01T16:16:38.536Z,26.50
2022-12-01T16:18:36.565Z,26.31
2022-12-01T16:20:34.590Z,26.13
2022-12-01T16:22:32.518Z,25.94
2022-12-01T16:24:30.576Z,25.75
2022-12-01T16:26:28.598Z,25.63
2022-12-01T16:28:27.519Z,25.44
2022-12-01T16:30:25.491Z,25.25
2022-12-01T16:32:23.520Z,25.13
2022-12-01T16:34:44.823Z,25.00
2022-12-01T16:36:41.144Z,24.88
2022-12-01T16:38:48.262Z,24.75
2022-12-01T16:40:46.159Z,24.63
2022-12-01T16:42:44.189Z,24.50
2022-12-01T16:44:42.132Z,24.38
2022-12-01T16:46:40.197Z,24.31
2022-12-01T16:48:38.568Z,24.19
2022-12-01T16:50:36.488Z,24.13
2022-12-01T16:52:49.799Z,24.00
2022-12-01T16:54:48.030Z,23.88
2022-12-01T16:56:46.088Z,23.81
2022-12-01T16:58:45.236Z,23.69
2022-12-01T17:00:43.212Z,23.63
2022-12-01T17:02:41.164Z,23.56
2022-12-01T17:04:39.163Z,23.44
2022-12-01T17:06:38.364Z,23.38
2022-12-01T17:08:36.337Z,23.31
2022-12-01T17:10:34.305Z,23.25
2022-12-01T17:12:32.215Z,23.19
2022-12-01T17:14:30.128Z,24.63
2022-12-01T17:16:28.111Z,24.63
2022-12-01T17:18:26.211Z,25.19
2022-12-01T17:20:24.120Z,25.50
2022-12-01T17:22:22.072Z,25.88
2022-12-01T17:24:20.037Z,26.13
2022-12-01T17:26:19.059Z,26.50
2022-12-01T17:28:17.728Z,26.81
2022-12-01T17:30:15.597Z,27.13
2022-12-01T17:32:13.942Z,27.38
2022-12-01T17:34:11.873Z,27.63
2022-12-01T17:36:09.786Z,27.94
2022-12-01T17:38:08.805Z,28.19
2022-12-01T17:40:06.711Z,28.38
2022-12-01T17:42:04.652Z,28.56
2022-12-01T17:44:03.632Z,28.69
2022-12-01T17:46:01.681Z,28.81
2022-12-01T17:47:59.611Z,28.88
2022-12-01T17:49:57.683Z,28.88
2022-12-01T17:51:55.660Z,28.88
2022-12-01T17:53:53.754Z,28.75
2022-12-01T17:55:51.671Z,28.69
2022-12-01T17:57:49.565Z,28.44
2022-12-01T17:59:47.430Z,28.19
2022-12-01T18:01:45.428Z,28.06
2022-12-01T18:03:44.595Z,27.81
2022-12-01T18:05:42.542Z,27.63
2022-12-01T18:07:40.894Z,27.31
2022-12-01T18:09:38.891Z,27.25
2022-12-01T18:11:36.821Z,26.94
2022-12-01T18:13:34.936Z,26.75
2022-12-01T18:15:34.783Z,26.63
2022-12-01T18:17:33.202Z,26.44
2022-12-01T18:19:31.103Z,26.19
2022-12-01T18:21:29.056Z,26.19
2022-12-01T18:23:27.145Z,25.69
2022-12-01T18:25:25.079Z,25.63
2022-12-01T18:27:22.984Z,25.56
2022-12-01T18:29:26.026Z,25.44
2022-12-01T18:31:24.253Z,25.31
2022-12-01T18:33:22.206Z,25.31
2022-12-01T18:35:20.081Z,25.25
2022-12-01T18:37:18.005Z,25.13
2022-12-01T18:39:15.990Z,25.13
2022-12-01T18:41:13.928Z,25.19
2022-12-01T18:43:11.803Z,25.06
2022-12-01T18:45:09.792Z,25.00
2022-12-01T18:47:08.148Z,25.06
2022-12-01T18:49:06.762Z,25.00
2022-12-01T18:51:04.777Z,24.94
2022-12-01T18:53:02.725Z,25.06
2022-12-01T18:55:00.610Z,25.38
2022-12-01T18:56:59.022Z,25.63
2022-12-01T18:58:57.008Z,25.88
2022-12-01T19:00:54.959Z,25.94
2022-12-01T19:02:52.951Z,25.94
2022-12-01T19:04:51.262Z,25.75
2022-12-01T19:06:50.402Z,25.88
2022-12-01T19:08:48.361Z,25.88
2022-12-01T19:10:46.297Z,25.94
2022-12-01T19:12:44.193Z,25.81
2022-12-01T19:14:42.127Z,25.88
2022-12-01T19:16:40.166Z,25.81
2022-12-01T19:18:38.152Z,25.88
2022-12-01T19:20:36.164Z,25.88
2022-12-01T19:22:34.203Z,25.88
2022-12-01T19:24:32.388Z,25.75
2022-12-01T19:26:30.291Z,25.38
2022-12-01T19:28:28.228Z,25.25
2022-12-01T19:30:26.118Z,25.25
2022-12-01T19:32:24.198Z,25.19
2022-12-01T19:34:22.093Z,25.06
2022-12-01T19:36:20.034Z,25.13
2022-12-01T19:38:17.976Z,25.25
2022-12-01T19:40:15.914Z,25.13
2022-12-01T19:42:14.068Z,25.06
2022-12-01T19:44:12.006Z,25.13
2022-12-01T19:46:09.915Z,25.00
2022-12-01T19:48:08.083Z,24.94
2022-12-01T19:50:06.066Z,25.63
2022-12-01T19:52:06.105Z,25.88
2022-12-01T19:54:04.015Z,25.81
2022-12-01T19:56:02.586Z,25.81
2022-12-01T19:58:00.536Z,25.75
2022-12-01T19:59:58.445Z,25.81
2022-12-01T20:01:56.373Z,25.94
2022-12-01T20:03:54.305Z,26.00
2022-12-01T20:05:52.198Z,25.81
2022-12-01T20:07:50.089Z,25.81
2022-12-01T20:09:50.062Z,25.75
2022-12-01T20:11:48.339Z,25.81
2022-12-01T20:13:46.318Z,25.81
2022-12-01T20:15:44.199Z,25.88
2022-12-01T20:17:42.118Z,25.88
2022-12-01T20:19:41.163Z,25.31
2022-12-01T20:21:42.185Z,25.31
2022-12-01T20:23:40.117Z,25.38
2022-12-01T20:25:38.095Z,25.25
2022-12-01T20:27:36.067Z,25.19
2022-12-01T20:29:33.978Z,25.06
2022-12-01T20:31:31.941Z,25.19
2022-12-01T20:33:29.869Z,25.06
2022-12-01T20:35:27.777Z,24.94
2022-12-01T20:37:25.695Z,25.06
2022-12-01T20:39:23.584Z,25.63
2022-12-01T20:41:21.497Z,25.63
2022-12-01T20:43:19.649Z,25.75
2022-12-01T20:45:18.637Z,25.88
2022-12-01T20:47:18.451Z,25.94
2022-12-01T20:49:16.462Z,25.88
2022-12-01T20:51:14.364Z,25.81
2022-12-01T20:53:12.444Z,25.88
2022-12-01T20:55:10.313Z,25.94
2022-12-01T20:57:08.209Z,26.00
2022-12-01T20:59:06.361Z,25.88
2022-12-01T21:01:04.309Z,25.88
2022-12-01T21:03:02.408Z,25.94
2022-12-01T21:05:00.691Z,25.94
2022-12-01T21:06:58.769Z,26.00
2022-12-01T21:08:56.696Z,25.81
2022-12-01T21:10:54.626Z,25.81
2022-12-01T21:13:10.294Z,26.06
2022-12-01T21:15:08.303Z,26.19
2022-12-01T21:17:06.262Z,26.00
2022-12-01T21:19:06.322Z,25.88
2022-12-01T21:21:04.265Z,25.44
2022-12-01T21:23:02.270Z,25.31
2022-12-01T21:25:00.196Z,25.25
2022-12-01T21:26:58.097Z,25.31
2022-12-01T21:28:56.996Z,25.38
2022-12-01T21:30:54.987Z,25.25
2022-12-01T21:32:52.954Z,25.13
2022-12-01T21:34:51.203Z,25.06
2022-12-01T21:36:49.331Z,25.19
2022-12-01T21:38:47.433Z,25.06
2022-12-01T21:40:46.639Z,25.00
2022-12-01T21:42:44.542Z,25.00
2022-12-01T21:44:42.459Z,25.00
2022-12-01T21:46:42.046Z,24.94
2022-12-01T21:48:40.045Z,25.00
2022-12-01T21:50:37.981Z,25.06
2022-12-01T21:52:36.939Z,25.50
2022-12-01T21:54:34.883Z,25.75
2022-12-01T21:56:32.798Z,25.81
2022-12-01T21:58:30.746Z,25.81
2022-12-01T22:00:28.734Z,25.75
2022-12-01T22:02:26.637Z,25.81
2022-12-01T22:04:25.564Z,25.81
2022-12-01T22:06:31.119Z,25.88
2022-12-01T22:08:29.285Z,25.94
2022-12-01T22:10:27.227Z,25.94
2022-12-01T22:12:25.170Z,25.88
2022-12-01T22:14:23.083Z,25.75
2022-12-01T22:16:20.997Z,25.81
2022-12-01T22:18:18.986Z,25.81
2022-12-01T22:20:16.891Z,25.81
2022-12-01T22:22:16.690Z,25.31
2022-12-01T22:24:14.663Z,25.38
2022-12-01T22:26:12.784Z,25.25
2022-12-01T22:28:10.716Z,25.19
2022-12-01T22:30:08.586Z,25.19
2022-12-01T22:32:06.810Z,25.25
2022-12-01T22:34:04.708Z,25.19
2022-12-01T22:36:02.630Z,25.06
2022-12-01T22:37:59.527Z,25.13
2022-12-01T22:39:57.450Z,25.06
2022-12-01T22:41:55.360Z,25.00
2022-12-01T22:43:54.664Z,25.75
2022-12-01T22:45:52.580Z,25.75
2022-12-01T22:47:50.511Z,25.88
2022-12-01T22:49:48.416Z,26.00
2022-12-01T22:51:46.348Z,25.88
2022-12-01T22:53:44.286Z,25.81
2022-12-01T22:55:42.169Z,25.88
2022-12-01T22:57:40.076Z,25.94
2022-12-01T22:59:37.930Z,26.06
2022-12-01T23:01:35.826Z,24.44
2022-12-01T23:03:33.820Z,24.31
2022-12-01T23:05:31.736Z,24.06
2022-12-01T23:07:30.717Z,23.81
2022-12-01T23:09:28.669Z,23.56
2022-12-01T23:11:26.654Z,23.31
2022-12-01T23:13:24.542Z,23.13
2022-12-01T23:15:22.572Z,22.81
2022-12-01T23:17:20.427Z,22.75
2022-12-01T23:19:18.305Z,22.56
2022-12-01T23:21:16.220Z,22.50
2022-12-01T23:23:14.146Z,22.44
2022-12-01T23:25:12.033Z,22.25
2022-12-01T23:27:09.942Z,22.19
2022-12-01T23:29:07.881Z,22.13
2022-12-01T23:31:05.875Z,22.13
2022-12-01T23:33:03.990Z,22.06
2022-12-01T23:35:02.239Z,22.00
2022-12-01T23:37:00.363Z,21.94
2022-12-01T23:38:58.325Z,21.88
2022-12-01T23:40:56.240Z,21.81
2022-12-01T23:42:54.163Z,21.81
2022-12-01T23:44:52.342Z,21.75
2022-12-01T23:46:50.492Z,21.69
2022-12-01T23:48:48.430Z,21.75
2022-12-01T23:50:46.381Z,21.69
2022-12-01T23:52:45.416Z,21.69
2022-12-01T23:54:43.309Z,21.63
2022-12-01T23:56:41.407Z,21.63
2022-12-01T23:58:39.294Z,21.63
